sensor_id;sensor_type;location;lat;lon;timestamp;temperature;humidity
22838;DHT22;11585;51.450;-0.240;2022-07-23T00:00:18;21.90;99.90
22838;DHT22;11585;51.450;-0.240;2022-07-23T00:02:44;21.90;99.90
22838;DHT22;11585;51.450;-0.240;2022-07-23T00:05:10;21.90;99.90
22838;DHT22;11585;51.450;-0.240;2022-07-23T00:07:37;21.90;99.90
22838;DHT22;11585;51.450;-0.240;2022-07-23T00:10:03;21.90;99.90
22838;DHT22;11585;51.450;-0.240;2022-07-23T00:12:29;21.90;99.90
22838;DHT22;11585;51.450;-0.240;2022-07-23T00:14:55;21.90;99.90
22838;DHT22;11585;51.450;-0.240;2022-07-23T00:17:20;21.90;99.90
22838;DHT22;11585;51.450;-0.240;2022-07-23T00:19:46;21.90;99.90
22838;DHT22;11585;51.450;-0.240;2022-07-23T00:22:12;21.90;99.90
22838;DHT22;11585;51.450;-0.240;2022-07-23T00:24:38;21.90;99.90
22838;DHT22;11585;51.450;-0.240;2022-07-23T00:27:04;21.90;99.90
22838;DHT22;11585;51.450;-0.240;2022-07-23T00:29:29;21.90;99.90
22838;DHT22;11585;51.450;-0.240;2022-07-23T00:31:55;21.90;99.90
22838;DHT22;11585;51.450;-0.240;2022-07-23T00:34:21;21.80;99.90
22838;DHT22;11585;51.450;-0.240;2022-07-23T00:36:47;21.80;99.90
22838;DHT22;11585;51.450;-0.240;2022-07-23T00:39:13;21.80;99.90
22838;DHT22;11585;51.450;-0.240;2022-07-23T00:41:39;21.80;99.90
22838;DHT22;11585;51.450;-0.240;2022-07-23T00:44:15;21.80;99.90
22838;DHT22;11585;51.450;-0.240;2022-07-23T00:46:58;21.80;99.90
22838;DHT22;11585;51.450;-0.240;2022-07-23T00:49:27;21.80;99.90
22838;DHT22;11585;51.450;-0.240;2022-07-23T00:51:54;21.80;99.90
22838;DHT22;11585;51.450;-0.240;2022-07-23T00:54:22;21.80;99.90
22838;DHT22;11585;51.450;-0.240;2022-07-23T00:56:48;21.80;99.90
22838;DHT22;11585;51.450;-0.240;2022-07-23T00:59:14;21.80;99.90
22838;DHT22;11585;51.450;-0.240;2022-07-23T01:01:40;21.80;99.90
22838;DHT22;11585;51.450;-0.240;2022-07-23T01:04:06;21.80;99.90
22838;DHT22;11585;51.450;-0.240;2022-07-23T01:06:37;21.80;99.90
22838;DHT22;11585;51.450;-0.240;2022-07-23T01:09:04;21.80;99.90
22838;DHT22;11585;51.450;-0.240;2022-07-23T01:11:33;21.80;99.90
22838;DHT22;11585;51.450;-0.240;2022-07-23T01:13:58;21.70;99.90
22838;DHT22;11585;51.450;-0.240;2022-07-23T01:16:24;21.70;99.90
22838;DHT22;11585;51.450;-0.240;2022-07-23T01:18:50;21.70;99.90
22838;DHT22;11585;51.450;-0.240;2022-07-23T01:21:18;21.70;99.90
22838;DHT22;11585;51.450;-0.240;2022-07-23T01:23:44;21.70;99.90
22838;DHT22;11585;51.450;-0.240;2022-07-23T01:26:09;21.70;99.90
22838;DHT22;11585;51.450;-0.240;2022-07-23T01:28:35;21.70;99.90
22838;DHT22;11585;51.450;-0.240;2022-07-23T01:31:01;21.70;99.90
22838;DHT22;11585;51.450;-0.240;2022-07-23T01:33:27;21.70;99.90
22838;DHT22;11585;51.450;-0.240;2022-07-23T01:35:52;21.60;99.90
22838;DHT22;11585;51.450;-0.240;2022-07-23T01:38:18;21.60;99.90
22838;DHT22;11585;51.450;-0.240;2022-07-23T01:40:44;21.70;99.90
22838;DHT22;11585;51.450;-0.240;2022-07-23T01:43:09;21.60;99.90
22838;DHT22;11585;51.450;-0.240;2022-07-23T01:45:35;21.60;99.90
22838;DHT22;11585;51.450;-0.240;2022-07-23T01:48:01;21.60;99.90
22838;DHT22;11585;51.450;-0.240;2022-07-23T01:50:26;21.60;99.90
22838;DHT22;11585;51.450;-0.240;2022-07-23T01:52:52;21.60;99.90
22838;DHT22;11585;51.450;-0.240;2022-07-23T01:55:17;21.60;99.90
22838;DHT22;11585;51.450;-0.240;2022-07-23T01:57:43;21.60;99.90
22838;DHT22;11585;51.450;-0.240;2022-07-23T02:00:09;21.60;99.90
22838;DHT22;11585;51.450;-0.240;2022-07-23T02:02:35;21.60;99.90
22838;DHT22;11585;51.450;-0.240;2022-07-23T02:05:01;21.60;99.90
22838;DHT22;11585;51.450;-0.240;2022-07-23T02:07:26;21.50;99.90
22838;DHT22;11585;51.450;-0.240;2022-07-23T02:09:52;21.50;99.90
22838;DHT22;11585;51.450;-0.240;2022-07-23T02:12:18;21.50;99.90
22838;DHT22;11585;51.450;-0.240;2022-07-23T02:14:43;21.50;99.90
22838;DHT22;11585;51.450;-0.240;2022-07-23T02:17:09;21.50;99.90
22838;DHT22;11585;51.450;-0.240;2022-07-23T02:19:35;21.50;99.90
22838;DHT22;11585;51.450;-0.240;2022-07-23T02:22:00;21.50;99.90
22838;DHT22;11585;51.450;-0.240;2022-07-23T02:24:26;21.50;99.90
22838;DHT22;11585;51.450;-0.240;2022-07-23T02:26:52;21.50;99.90
22838;DHT22;11585;51.450;-0.240;2022-07-23T02:29:18;21.40;99.90
22838;DHT22;11585;51.450;-0.240;2022-07-23T02:31:43;21.50;99.90
22838;DHT22;11585;51.450;-0.240;2022-07-23T02:34:09;21.40;99.90
22838;DHT22;11585;51.450;-0.240;2022-07-23T02:36:37;21.40;99.90
22838;DHT22;11585;51.450;-0.240;2022-07-23T02:39:04;21.40;99.90
22838;DHT22;11585;51.450;-0.240;2022-07-23T02:41:29;21.40;99.90
22838;DHT22;11585;51.450;-0.240;2022-07-23T02:43:55;21.40;99.90
22838;DHT22;11585;51.450;-0.240;2022-07-23T02:46:20;21.40;99.90
22838;DHT22;11585;51.450;-0.240;2022-07-23T02:48:47;21.40;99.90
22838;DHT22;11585;51.450;-0.240;2022-07-23T02:51:13;21.40;99.90
22838;DHT22;11585;51.450;-0.240;2022-07-23T02:53:38;21.30;99.90
22838;DHT22;11585;51.450;-0.240;2022-07-23T02:56:04;21.30;99.90
22838;DHT22;11585;51.450;-0.240;2022-07-23T02:58:30;21.30;99.90
22838;DHT22;11585;51.450;-0.240;2022-07-23T03:00:55;21.30;99.90
22838;DHT22;11585;51.450;-0.240;2022-07-23T03:03:21;21.30;99.90
22838;DHT22;11585;51.450;-0.240;2022-07-23T03:05:47;21.30;99.90
22838;DHT22;11585;51.450;-0.240;2022-07-23T03:08:13;21.30;99.90
22838;DHT22;11585;51.450;-0.240;2022-07-23T03:10:39;21.20;99.90
22838;DHT22;11585;51.450;-0.240;2022-07-23T03:13:04;21.20;99.90
22838;DHT22;11585;51.450;-0.240;2022-07-23T03:15:30;21.30;99.90
22838;DHT22;11585;51.450;-0.240;2022-07-23T03:17:56;21.20;99.90
22838;DHT22;11585;51.450;-0.240;2022-07-23T03:20:21;21.20;99.90
22838;DHT22;11585;51.450;-0.240;2022-07-23T03:22:47;21.20;99.90
22838;DHT22;11585;51.450;-0.240;2022-07-23T03:25:13;21.20;99.90
22838;DHT22;11585;51.450;-0.240;2022-07-23T03:27:38;21.20;99.90
22838;DHT22;11585;51.450;-0.240;2022-07-23T03:30:04;21.20;99.90
22838;DHT22;11585;51.450;-0.240;2022-07-23T03:32:30;21.20;99.90
22838;DHT22;11585;51.450;-0.240;2022-07-23T03:34:57;21.20;99.90
22838;DHT22;11585;51.450;-0.240;2022-07-23T03:37:22;21.20;99.90
22838;DHT22;11585;51.450;-0.240;2022-07-23T03:39:48;21.20;99.90
22838;DHT22;11585;51.450;-0.240;2022-07-23T03:42:14;21.20;99.90
22838;DHT22;11585;51.450;-0.240;2022-07-23T03:44:39;21.20;99.90
22838;DHT22;11585;51.450;-0.240;2022-07-23T03:47:06;21.20;99.90
22838;DHT22;11585;51.450;-0.240;2022-07-23T03:49:32;21.10;99.90
22838;DHT22;11585;51.450;-0.240;2022-07-23T03:51:58;21.10;99.90
22838;DHT22;11585;51.450;-0.240;2022-07-23T03:54:24;21.20;99.90
22838;DHT22;11585;51.450;-0.240;2022-07-23T03:56:50;21.10;99.90
22838;DHT22;11585;51.450;-0.240;2022-07-23T03:59:15;21.10;99.90
22838;DHT22;11585;51.450;-0.240;2022-07-23T04:01:41;21.10;99.90
22838;DHT22;11585;51.450;-0.240;2022-07-23T04:04:07;21.10;99.90
22838;DHT22;11585;51.450;-0.240;2022-07-23T04:06:34;21.10;99.90
22838;DHT22;11585;51.450;-0.240;2022-07-23T04:09:00;21.20;99.90
22838;DHT22;11585;51.450;-0.240;2022-07-23T04:11:26;21.10;99.90
22838;DHT22;11585;51.450;-0.240;2022-07-23T04:13:52;21.20;99.90
22838;DHT22;11585;51.450;-0.240;2022-07-23T04:16:17;21.20;99.90
22838;DHT22;11585;51.450;-0.240;2022-07-23T04:18:43;21.10;99.90
22838;DHT22;11585;51.450;-0.240;2022-07-23T04:21:09;21.10;99.90
22838;DHT22;11585;51.450;-0.240;2022-07-23T04:23:34;21.10;99.90
22838;DHT22;11585;51.450;-0.240;2022-07-23T04:26:00;21.10;99.90
22838;DHT22;11585;51.450;-0.240;2022-07-23T04:28:26;21.10;99.90
22838;DHT22;11585;51.450;-0.240;2022-07-23T04:30:52;21.10;99.90
22838;DHT22;11585;51.450;-0.240;2022-07-23T04:33:17;21.10;99.90
22838;DHT22;11585;51.450;-0.240;2022-07-23T04:35:43;21.10;99.90
22838;DHT22;11585;51.450;-0.240;2022-07-23T04:38:09;21.10;99.90
22838;DHT22;11585;51.450;-0.240;2022-07-23T04:40:35;21.10;99.90
22838;DHT22;11585;51.450;-0.240;2022-07-23T04:43:00;21.10;99.90
22838;DHT22;11585;51.450;-0.240;2022-07-23T04:45:26;21.10;99.90
22838;DHT22;11585;51.450;-0.240;2022-07-23T04:47:52;21.10;99.90
22838;DHT22;11585;51.450;-0.240;2022-07-23T04:50:18;21.10;99.90
22838;DHT22;11585;51.450;-0.240;2022-07-23T04:52:47;21.10;99.90
22838;DHT22;11585;51.450;-0.240;2022-07-23T04:55:14;21.10;99.90
22838;DHT22;11585;51.450;-0.240;2022-07-23T04:57:39;21.10;99.90
22838;DHT22;11585;51.450;-0.240;2022-07-23T05:00:06;21.10;99.90
22838;DHT22;11585;51.450;-0.240;2022-07-23T05:02:32;21.10;99.90
22838;DHT22;11585;51.450;-0.240;2022-07-23T05:04:58;21.00;99.90
22838;DHT22;11585;51.450;-0.240;2022-07-23T05:07:24;21.00;99.90
22838;DHT22;11585;51.450;-0.240;2022-07-23T05:09:50;21.00;99.90
22838;DHT22;11585;51.450;-0.240;2022-07-23T05:12:16;21.00;99.90
22838;DHT22;11585;51.450;-0.240;2022-07-23T05:14:41;21.00;99.90
22838;DHT22;11585;51.450;-0.240;2022-07-23T05:17:07;21.00;99.90
22838;DHT22;11585;51.450;-0.240;2022-07-23T05:19:34;21.00;99.90
22838;DHT22;11585;51.450;-0.240;2022-07-23T05:22:00;21.00;99.90
22838;DHT22;11585;51.450;-0.240;2022-07-23T05:24:25;21.00;99.90
22838;DHT22;11585;51.450;-0.240;2022-07-23T05:26:51;21.00;99.90
22838;DHT22;11585;51.450;-0.240;2022-07-23T05:29:17;21.00;99.90
22838;DHT22;11585;51.450;-0.240;2022-07-23T05:31:43;21.00;99.90
22838;DHT22;11585;51.450;-0.240;2022-07-23T05:34:09;21.00;99.90
22838;DHT22;11585;51.450;-0.240;2022-07-23T05:36:34;21.00;99.90
22838;DHT22;11585;51.450;-0.240;2022-07-23T05:39:00;21.00;99.90
22838;DHT22;11585;51.450;-0.240;2022-07-23T05:41:26;21.00;99.90
22838;DHT22;11585;51.450;-0.240;2022-07-23T05:43:52;21.00;99.90
22838;DHT22;11585;51.450;-0.240;2022-07-23T05:46:17;21.00;99.90
22838;DHT22;11585;51.450;-0.240;2022-07-23T05:48:43;21.00;99.90
22838;DHT22;11585;51.450;-0.240;2022-07-23T05:51:11;21.00;99.90
22838;DHT22;11585;51.450;-0.240;2022-07-23T05:53:37;21.00;99.90
22838;DHT22;11585;51.450;-0.240;2022-07-23T05:56:03;21.00;99.90
22838;DHT22;11585;51.450;-0.240;2022-07-23T05:58:29;21.00;99.90
22838;DHT22;11585;51.450;-0.240;2022-07-23T06:00:55;21.00;99.90
22838;DHT22;11585;51.450;-0.240;2022-07-23T06:03:20;21.00;99.90
22838;DHT22;11585;51.450;-0.240;2022-07-23T06:05:46;21.00;99.90
22838;DHT22;11585;51.450;-0.240;2022-07-23T06:08:13;21.10;99.90
22838;DHT22;11585;51.450;-0.240;2022-07-23T06:10:38;21.10;99.90
22838;DHT22;11585;51.450;-0.240;2022-07-23T06:13:04;21.00;99.90
22838;DHT22;11585;51.450;-0.240;2022-07-23T06:15:30;21.10;99.90
22838;DHT22;11585;51.450;-0.240;2022-07-23T06:17:56;21.10;99.90
22838;DHT22;11585;51.450;-0.240;2022-07-23T06:20:22;21.10;99.90
22838;DHT22;11585;51.450;-0.240;2022-07-23T06:22:47;21.10;99.90
22838;DHT22;11585;51.450;-0.240;2022-07-23T06:25:13;21.10;99.90
22838;DHT22;11585;51.450;-0.240;2022-07-23T06:27:39;21.10;99.90
22838;DHT22;11585;51.450;-0.240;2022-07-23T06:30:05;21.10;99.90
22838;DHT22;11585;51.450;-0.240;2022-07-23T06:32:31;21.10;99.90
22838;DHT22;11585;51.450;-0.240;2022-07-23T06:34:57;21.10;99.90
22838;DHT22;11585;51.450;-0.240;2022-07-23T06:37:22;21.10;99.90
22838;DHT22;11585;51.450;-0.240;2022-07-23T06:39:48;21.10;99.90
22838;DHT22;11585;51.450;-0.240;2022-07-23T06:42:14;21.10;99.90
22838;DHT22;11585;51.450;-0.240;2022-07-23T06:44:40;21.10;99.90
22838;DHT22;11585;51.450;-0.240;2022-07-23T06:47:06;21.10;99.90
22838;DHT22;11585;51.450;-0.240;2022-07-23T06:49:32;21.20;99.90
22838;DHT22;11585;51.450;-0.240;2022-07-23T06:51:57;21.20;99.90
22838;DHT22;11585;51.450;-0.240;2022-07-23T06:54:23;21.20;99.90
22838;DHT22;11585;51.450;-0.240;2022-07-23T06:56:49;21.30;99.90
22838;DHT22;11585;51.450;-0.240;2022-07-23T06:59:14;21.30;99.90
22838;DHT22;11585;51.450;-0.240;2022-07-23T07:01:40;21.30;99.90
22838;DHT22;11585;51.450;-0.240;2022-07-23T07:04:06;21.40;99.90
22838;DHT22;11585;51.450;-0.240;2022-07-23T07:06:31;21.40;99.90
22838;DHT22;11585;51.450;-0.240;2022-07-23T07:08:57;21.40;99.90
22838;DHT22;11585;51.450;-0.240;2022-07-23T07:11:23;21.40;99.90
22838;DHT22;11585;51.450;-0.240;2022-07-23T07:13:50;21.50;99.90
22838;DHT22;11585;51.450;-0.240;2022-07-23T07:16:16;21.50;99.90
22838;DHT22;11585;51.450;-0.240;2022-07-23T07:18:42;21.60;99.90
22838;DHT22;11585;51.450;-0.240;2022-07-23T07:21:08;21.60;99.90
22838;DHT22;11585;51.450;-0.240;2022-07-23T07:23:34;21.70;99.90
22838;DHT22;11585;51.450;-0.240;2022-07-23T07:25:59;21.70;99.90
22838;DHT22;11585;51.450;-0.240;2022-07-23T07:28:25;21.70;99.90
22838;DHT22;11585;51.450;-0.240;2022-07-23T07:30:51;21.80;99.90
22838;DHT22;11585;51.450;-0.240;2022-07-23T07:33:17;21.90;99.90
22838;DHT22;11585;51.450;-0.240;2022-07-23T07:35:42;22.00;99.90
22838;DHT22;11585;51.450;-0.240;2022-07-23T07:38:08;22.10;99.90
22838;DHT22;11585;51.450;-0.240;2022-07-23T07:40:34;22.20;99.90
22838;DHT22;11585;51.450;-0.240;2022-07-23T07:43:00;22.30;99.90
22838;DHT22;11585;51.450;-0.240;2022-07-23T07:45:27;22.30;99.90
22838;DHT22;11585;51.450;-0.240;2022-07-23T07:47:52;22.50;99.90
22838;DHT22;11585;51.450;-0.240;2022-07-23T07:50:19;22.60;99.90
22838;DHT22;11585;51.450;-0.240;2022-07-23T07:52:45;22.70;99.90
22838;DHT22;11585;51.450;-0.240;2022-07-23T07:55:11;22.70;99.90
22838;DHT22;11585;51.450;-0.240;2022-07-23T07:57:37;22.80;99.90
22838;DHT22;11585;51.450;-0.240;2022-07-23T08:00:09;22.90;99.90
22838;DHT22;11585;51.450;-0.240;2022-07-23T08:02:52;23.10;99.90
22838;DHT22;11585;51.450;-0.240;2022-07-23T08:05:21;23.10;99.90
22838;DHT22;11585;51.450;-0.240;2022-07-23T08:07:47;23.20;99.90
22838;DHT22;11585;51.450;-0.240;2022-07-23T08:10:13;23.30;99.90
22838;DHT22;11585;51.450;-0.240;2022-07-23T08:12:40;23.30;99.90
22838;DHT22;11585;51.450;-0.240;2022-07-23T08:15:07;23.40;99.90
22838;DHT22;11585;51.450;-0.240;2022-07-23T08:17:33;23.40;99.90
22838;DHT22;11585;51.450;-0.240;2022-07-23T08:19:59;23.50;99.90
22838;DHT22;11585;51.450;-0.240;2022-07-23T08:22:24;23.50;99.90
22838;DHT22;11585;51.450;-0.240;2022-07-23T08:24:50;23.50;99.90
22838;DHT22;11585;51.450;-0.240;2022-07-23T08:27:16;23.50;99.90
22838;DHT22;11585;51.450;-0.240;2022-07-23T08:29:41;23.60;99.90
22838;DHT22;11585;51.450;-0.240;2022-07-23T08:32:07;23.60;99.90
22838;DHT22;11585;51.450;-0.240;2022-07-23T08:34:33;23.60;99.90
22838;DHT22;11585;51.450;-0.240;2022-07-23T08:36:58;23.60;99.90
22838;DHT22;11585;51.450;-0.240;2022-07-23T08:39:24;23.60;99.90
22838;DHT22;11585;51.450;-0.240;2022-07-23T08:41:50;23.60;99.90
22838;DHT22;11585;51.450;-0.240;2022-07-23T08:44:16;23.60;99.90
22838;DHT22;11585;51.450;-0.240;2022-07-23T08:46:43;23.60;99.90
22838;DHT22;11585;51.450;-0.240;2022-07-23T08:49:10;23.60;99.90
22838;DHT22;11585;51.450;-0.240;2022-07-23T08:51:37;23.60;99.90
22838;DHT22;11585;51.450;-0.240;2022-07-23T08:54:03;23.60;99.90
22838;DHT22;11585;51.450;-0.240;2022-07-23T08:56:29;23.60;99.90
22838;DHT22;11585;51.450;-0.240;2022-07-23T08:58:55;23.60;99.90
22838;DHT22;11585;51.450;-0.240;2022-07-23T09:01:21;23.60;99.90
22838;DHT22;11585;51.450;-0.240;2022-07-23T09:03:47;23.60;99.90
22838;DHT22;11585;51.450;-0.240;2022-07-23T09:06:12;23.60;99.90
22838;DHT22;11585;51.450;-0.240;2022-07-23T09:08:39;23.60;99.90
22838;DHT22;11585;51.450;-0.240;2022-07-23T09:11:07;23.60;99.90
22838;DHT22;11585;51.450;-0.240;2022-07-23T09:13:51;23.60;99.90
22838;DHT22;11585;51.450;-0.240;2022-07-23T09:16:27;23.60;99.90
22838;DHT22;11585;51.450;-0.240;2022-07-23T09:18:58;23.60;99.90
22838;DHT22;11585;51.450;-0.240;2022-07-23T09:21:30;23.60;99.90
22838;DHT22;11585;51.450;-0.240;2022-07-23T09:24:07;23.60;99.90
22838;DHT22;11585;51.450;-0.240;2022-07-23T09:26:41;23.60;99.90
22838;DHT22;11585;51.450;-0.240;2022-07-23T09:31:47;23.60;99.90
22838;DHT22;11585;51.450;-0.240;2022-07-23T09:34:16;23.60;99.90
22838;DHT22;11585;51.450;-0.240;2022-07-23T09:36:42;23.60;99.90
22838;DHT22;11585;51.450;-0.240;2022-07-23T09:39:09;23.60;99.90
22838;DHT22;11585;51.450;-0.240;2022-07-23T09:41:43;23.60;99.90
22838;DHT22;11585;51.450;-0.240;2022-07-23T09:44:11;23.60;99.90
22838;DHT22;11585;51.450;-0.240;2022-07-23T09:46:38;23.60;99.90
22838;DHT22;11585;51.450;-0.240;2022-07-23T09:49:22;23.60;99.90
22838;DHT22;11585;51.450;-0.240;2022-07-23T09:51:59;23.60;99.90
22838;DHT22;11585;51.450;-0.240;2022-07-23T09:59:30;23.60;99.90
22838;DHT22;11585;51.450;-0.240;2022-07-23T10:01:57;23.60;99.90
22838;DHT22;11585;51.450;-0.240;2022-07-23T10:04:26;23.60;99.90
22838;DHT22;11585;51.450;-0.240;2022-07-23T10:06:58;23.70;99.90
22838;DHT22;11585;51.450;-0.240;2022-07-23T10:09:28;23.70;99.90
22838;DHT22;11585;51.450;-0.240;2022-07-23T10:11:56;23.70;99.90
22838;DHT22;11585;51.450;-0.240;2022-07-23T10:14:30;23.70;99.90
22838;DHT22;11585;51.450;-0.240;2022-07-23T10:16:58;23.70;99.90
22838;DHT22;11585;51.450;-0.240;2022-07-23T10:19:25;23.70;99.90
22838;DHT22;11585;51.450;-0.240;2022-07-23T10:22:03;23.70;99.90
22838;DHT22;11585;51.450;-0.240;2022-07-23T10:24:59;23.70;99.90
22838;DHT22;11585;51.450;-0.240;2022-07-23T10:31:02;23.70;99.90
22838;DHT22;11585;51.450;-0.240;2022-07-23T10:36:34;23.80;99.90
22838;DHT22;11585;51.450;-0.240;2022-07-23T10:39:11;23.80;99.90
22838;DHT22;11585;51.450;-0.240;2022-07-23T10:41:40;23.80;99.90
22838;DHT22;11585;51.450;-0.240;2022-07-23T10:44:18;23.80;99.90
22838;DHT22;11585;51.450;-0.240;2022-07-23T10:47:02;23.90;99.90
22838;DHT22;11585;51.450;-0.240;2022-07-23T10:49:37;23.90;99.90
22838;DHT22;11585;51.450;-0.240;2022-07-23T10:52:34;23.90;99.90
22838;DHT22;11585;51.450;-0.240;2022-07-23T10:57:48;24.00;99.90
22838;DHT22;11585;51.450;-0.240;2022-07-23T11:00:25;24.00;99.90
22838;DHT22;11585;51.450;-0.240;2022-07-23T11:02:55;24.00;99.90
22838;DHT22;11585;51.450;-0.240;2022-07-23T11:05:42;24.00;99.90
22838;DHT22;11585;51.450;-0.240;2022-07-23T11:10:41;24.10;99.90
22838;DHT22;11585;51.450;-0.240;2022-07-23T11:16:08;24.10;99.90
22838;DHT22;11585;51.450;-0.240;2022-07-23T11:34:48;24.20;99.90
22838;DHT22;11585;51.450;-0.240;2022-07-23T11:37:39;24.30;99.90
22838;DHT22;11585;51.450;-0.240;2022-07-23T11:40:11;24.30;99.90
22838;DHT22;11585;51.450;-0.240;2022-07-23T11:42:51;24.30;99.90
22838;DHT22;11585;51.450;-0.240;2022-07-23T11:45:17;24.30;99.90
22838;DHT22;11585;51.450;-0.240;2022-07-23T11:47:43;24.40;99.90
22838;DHT22;11585;51.450;-0.240;2022-07-23T11:50:09;24.40;99.90
22838;DHT22;11585;51.450;-0.240;2022-07-23T11:52:35;24.40;99.90
22838;DHT22;11585;51.450;-0.240;2022-07-23T11:55:04;24.40;99.90
22838;DHT22;11585;51.450;-0.240;2022-07-23T11:57:36;24.40;99.90
22838;DHT22;11585;51.450;-0.240;2022-07-23T12:02:35;24.50;99.90
22838;DHT22;11585;51.450;-0.240;2022-07-23T12:05:01;24.50;99.90
22838;DHT22;11585;51.450;-0.240;2022-07-23T12:07:41;24.60;99.90
22838;DHT22;11585;51.450;-0.240;2022-07-23T12:12:43;24.70;99.90
22838;DHT22;11585;51.450;-0.240;2022-07-23T12:15:11;24.70;99.90
22838;DHT22;11585;51.450;-0.240;2022-07-23T12:17:39;24.70;99.90
22838;DHT22;11585;51.450;-0.240;2022-07-23T12:20:08;24.80;99.90
22838;DHT22;11585;51.450;-0.240;2022-07-23T12:22:37;24.80;99.90
22838;DHT22;11585;51.450;-0.240;2022-07-23T12:25:27;24.80;99.90
22838;DHT22;11585;51.450;-0.240;2022-07-23T12:28:18;24.90;99.90
22838;DHT22;11585;51.450;-0.240;2022-07-23T12:30:53;24.90;99.90
22838;DHT22;11585;51.450;-0.240;2022-07-23T12:33:25;24.90;99.90
22838;DHT22;11585;51.450;-0.240;2022-07-23T12:35:56;25.00;99.90
22838;DHT22;11585;51.450;-0.240;2022-07-23T12:38:25;25.10;99.90
22838;DHT22;11585;51.450;-0.240;2022-07-23T12:40:56;25.10;99.90
22838;DHT22;11585;51.450;-0.240;2022-07-23T12:43:32;25.20;99.90
22838;DHT22;11585;51.450;-0.240;2022-07-23T12:46:09;25.20;99.90
22838;DHT22;11585;51.450;-0.240;2022-07-23T12:48:40;25.30;99.90
22838;DHT22;11585;51.450;-0.240;2022-07-23T12:51:23;25.30;99.90
22838;DHT22;11585;51.450;-0.240;2022-07-23T12:53:50;25.30;99.90
22838;DHT22;11585;51.450;-0.240;2022-07-23T12:56:28;25.30;99.90
22838;DHT22;11585;51.450;-0.240;2022-07-23T12:59:04;25.30;99.90
22838;DHT22;11585;51.450;-0.240;2022-07-23T13:01:43;25.40;99.90
22838;DHT22;11585;51.450;-0.240;2022-07-23T13:04:22;25.50;99.90
22838;DHT22;11585;51.450;-0.240;2022-07-23T13:06:53;25.50;99.90
22838;DHT22;11585;51.450;-0.240;2022-07-23T13:09:25;25.60;99.90
22838;DHT22;11585;51.450;-0.240;2022-07-23T13:11:52;25.60;99.90
22838;DHT22;11585;51.450;-0.240;2022-07-23T13:14:20;25.60;99.90
22838;DHT22;11585;51.450;-0.240;2022-07-23T13:16:47;25.60;99.90
22838;DHT22;11585;51.450;-0.240;2022-07-23T13:19:14;25.70;99.90
22838;DHT22;11585;51.450;-0.240;2022-07-23T13:21:41;25.80;99.90
22838;DHT22;11585;51.450;-0.240;2022-07-23T13:24:08;25.80;99.90
22838;DHT22;11585;51.450;-0.240;2022-07-23T13:26:34;25.80;99.90
22838;DHT22;11585;51.450;-0.240;2022-07-23T13:29:01;25.80;99.90
22838;DHT22;11585;51.450;-0.240;2022-07-23T13:31:26;25.90;99.90
22838;DHT22;11585;51.450;-0.240;2022-07-23T13:33:52;25.90;99.90
22838;DHT22;11585;51.450;-0.240;2022-07-23T13:36:18;26.00;99.90
22838;DHT22;11585;51.450;-0.240;2022-07-23T13:38:44;26.00;99.90
22838;DHT22;11585;51.450;-0.240;2022-07-23T13:41:10;26.00;99.90
22838;DHT22;11585;51.450;-0.240;2022-07-23T13:43:36;26.10;99.90
22838;DHT22;11585;51.450;-0.240;2022-07-23T13:46:02;26.10;99.90
22838;DHT22;11585;51.450;-0.240;2022-07-23T13:48:29;26.20;99.90
22838;DHT22;11585;51.450;-0.240;2022-07-23T13:51:00;26.20;99.90
22838;DHT22;11585;51.450;-0.240;2022-07-23T13:53:25;26.20;99.90
22838;DHT22;11585;51.450;-0.240;2022-07-23T13:55:52;26.30;99.90
22838;DHT22;11585;51.450;-0.240;2022-07-23T13:58:19;26.30;99.90
22838;DHT22;11585;51.450;-0.240;2022-07-23T14:00:51;26.30;99.90
22838;DHT22;11585;51.450;-0.240;2022-07-23T14:03:18;26.40;99.90
22838;DHT22;11585;51.450;-0.240;2022-07-23T14:05:44;26.40;99.90
22838;DHT22;11585;51.450;-0.240;2022-07-23T14:08:13;26.40;99.90
22838;DHT22;11585;51.450;-0.240;2022-07-23T14:10:38;26.40;99.90
22838;DHT22;11585;51.450;-0.240;2022-07-23T14:13:04;26.40;99.90
22838;DHT22;11585;51.450;-0.240;2022-07-23T14:15:34;26.40;99.90
22838;DHT22;11585;51.450;-0.240;2022-07-23T14:18:02;26.40;99.90
22838;DHT22;11585;51.450;-0.240;2022-07-23T14:20:28;26.40;99.90
22838;DHT22;11585;51.450;-0.240;2022-07-23T14:22:54;26.40;99.90
22838;DHT22;11585;51.450;-0.240;2022-07-23T14:25:21;26.40;99.90
22838;DHT22;11585;51.450;-0.240;2022-07-23T14:27:47;26.40;99.90
22838;DHT22;11585;51.450;-0.240;2022-07-23T14:30:13;26.40;99.90
22838;DHT22;11585;51.450;-0.240;2022-07-23T14:32:40;26.40;99.90
22838;DHT22;11585;51.450;-0.240;2022-07-23T14:35:06;26.40;99.90
22838;DHT22;11585;51.450;-0.240;2022-07-23T14:37:32;26.40;99.90
22838;DHT22;11585;51.450;-0.240;2022-07-23T14:39:58;26.40;99.90
22838;DHT22;11585;51.450;-0.240;2022-07-23T14:42:25;26.40;99.90
22838;DHT22;11585;51.450;-0.240;2022-07-23T14:44:50;26.40;99.90
22838;DHT22;11585;51.450;-0.240;2022-07-23T14:47:16;26.40;99.90
22838;DHT22;11585;51.450;-0.240;2022-07-23T14:49:43;26.40;99.90
22838;DHT22;11585;51.450;-0.240;2022-07-23T14:52:09;26.30;99.90
22838;DHT22;11585;51.450;-0.240;2022-07-23T14:54:38;26.40;99.90
22838;DHT22;11585;51.450;-0.240;2022-07-23T14:57:03;26.40;99.90
22838;DHT22;11585;51.450;-0.240;2022-07-23T14:59:30;26.30;99.90
22838;DHT22;11585;51.450;-0.240;2022-07-23T15:01:56;26.30;99.90
22838;DHT22;11585;51.450;-0.240;2022-07-23T15:04:23;26.30;99.90
22838;DHT22;11585;51.450;-0.240;2022-07-23T15:06:49;26.30;99.90
22838;DHT22;11585;51.450;-0.240;2022-07-23T15:09:15;26.20;99.90
22838;DHT22;11585;51.450;-0.240;2022-07-23T15:11:41;26.20;99.90
22838;DHT22;11585;51.450;-0.240;2022-07-23T15:14:08;26.20;99.90
22838;DHT22;11585;51.450;-0.240;2022-07-23T15:16:34;26.30;99.90
22838;DHT22;11585;51.450;-0.240;2022-07-23T15:19:00;26.30;99.90
22838;DHT22;11585;51.450;-0.240;2022-07-23T15:21:27;26.20;99.90
22838;DHT22;11585;51.450;-0.240;2022-07-23T15:23:54;26.50;99.90
22838;DHT22;11585;51.450;-0.240;2022-07-23T15:26:20;26.30;99.90
22838;DHT22;11585;51.450;-0.240;2022-07-23T15:28:48;26.30;99.90
22838;DHT22;11585;51.450;-0.240;2022-07-23T15:31:14;26.30;99.90
22838;DHT22;11585;51.450;-0.240;2022-07-23T15:33:40;26.30;99.90
22838;DHT22;11585;51.450;-0.240;2022-07-23T15:36:05;26.30;99.90
22838;DHT22;11585;51.450;-0.240;2022-07-23T15:38:32;26.30;99.90
22838;DHT22;11585;51.450;-0.240;2022-07-23T15:40:58;26.30;99.90
22838;DHT22;11585;51.450;-0.240;2022-07-23T15:43:25;26.30;99.90
22838;DHT22;11585;51.450;-0.240;2022-07-23T15:45:51;26.30;99.90
22838;DHT22;11585;51.450;-0.240;2022-07-23T15:48:19;26.30;99.90
22838;DHT22;11585;51.450;-0.240;2022-07-23T15:50:46;26.20;99.90
22838;DHT22;11585;51.450;-0.240;2022-07-23T15:53:12;26.30;99.90
22838;DHT22;11585;51.450;-0.240;2022-07-23T15:55:38;26.20;99.90
22838;DHT22;11585;51.450;-0.240;2022-07-23T15:58:05;26.20;99.90
22838;DHT22;11585;51.450;-0.240;2022-07-23T16:00:31;26.20;99.90